sensor_id;sensor_type;location;lat;lon;timestamp;temperature;humidity
54202;DHT22;40108;53.152;5.844;2022-07-09T00:00:19;16.10;91.40
54202;DHT22;40108;53.152;5.844;2022-07-09T00:02:45;16.10;91.30
54202;DHT22;40108;53.152;5.844;2022-07-09T00:05:18;16.20;91.10
54202;DHT22;40108;53.152;5.844;2022-07-09T00:07:47;16.20;91.00
54202;DHT22;40108;53.152;5.844;2022-07-09T00:10:26;16.20;91.00
54202;DHT22;40108;53.152;5.844;2022-07-09T00:13:03;16.20;91.20
54202;DHT22;40108;53.152;5.844;2022-07-09T00:15:32;16.30;91.10
54202;DHT22;40108;53.152;5.844;2022-07-09T00:17:57;16.30;91.10
54202;DHT22;40108;53.152;5.844;2022-07-09T00:20:23;16.30;91.00
54202;DHT22;40108;53.152;5.844;2022-07-09T00:22:49;16.30;91.20
54202;DHT22;40108;53.152;5.844;2022-07-09T00:25:16;16.30;91.20
54202;DHT22;40108;53.152;5.844;2022-07-09T00:27:42;16.40;91.10
54202;DHT22;40108;53.152;5.844;2022-07-09T00:30:08;16.40;91.30
54202;DHT22;40108;53.152;5.844;2022-07-09T00:32:33;16.40;91.30
54202;DHT22;40108;53.152;5.844;2022-07-09T00:34:59;16.40;91.50
54202;DHT22;40108;53.152;5.844;2022-07-09T00:37:25;16.50;91.50
54202;DHT22;40108;53.152;5.844;2022-07-09T00:39:50;16.50;91.40
54202;DHT22;40108;53.152;5.844;2022-07-09T00:42:17;16.50;91.40
54202;DHT22;40108;53.152;5.844;2022-07-09T00:44:46;16.60;91.40
54202;DHT22;40108;53.152;5.844;2022-07-09T00:47:29;16.60;91.50
54202;DHT22;40108;53.152;5.844;2022-07-09T00:49:58;16.60;91.60
54202;DHT22;40108;53.152;5.844;2022-07-09T00:52:24;16.60;91.40
54202;DHT22;40108;53.152;5.844;2022-07-09T00:54:55;16.60;91.50
54202;DHT22;40108;53.152;5.844;2022-07-09T00:57:22;16.60;91.50
54202;DHT22;40108;53.152;5.844;2022-07-09T00:59:54;16.60;91.60
54202;DHT22;40108;53.152;5.844;2022-07-09T01:02:21;16.70;91.60
54202;DHT22;40108;53.152;5.844;2022-07-09T01:04:47;16.70;91.50
54202;DHT22;40108;53.152;5.844;2022-07-09T01:07:13;16.70;91.50
54202;DHT22;40108;53.152;5.844;2022-07-09T01:09:39;16.70;91.40
54202;DHT22;40108;53.152;5.844;2022-07-09T01:12:06;16.80;91.40
54202;DHT22;40108;53.152;5.844;2022-07-09T01:14:32;16.80;91.30
54202;DHT22;40108;53.152;5.844;2022-07-09T01:17:03;16.80;91.40
54202;DHT22;40108;53.152;5.844;2022-07-09T01:19:30;16.80;91.40
54202;DHT22;40108;53.152;5.844;2022-07-09T01:21:57;16.80;91.20
54202;DHT22;40108;53.152;5.844;2022-07-09T01:24:23;16.80;91.30
54202;DHT22;40108;53.152;5.844;2022-07-09T01:26:49;16.70;91.30
54202;DHT22;40108;53.152;5.844;2022-07-09T01:29:16;16.80;91.20
54202;DHT22;40108;53.152;5.844;2022-07-09T01:31:42;16.80;91.30
54202;DHT22;40108;53.152;5.844;2022-07-09T01:34:08;16.80;91.20
54202;DHT22;40108;53.152;5.844;2022-07-09T01:36:34;16.80;91.20
54202;DHT22;40108;53.152;5.844;2022-07-09T01:38:59;16.80;91.10
54202;DHT22;40108;53.152;5.844;2022-07-09T01:41:25;16.80;91.00
54202;DHT22;40108;53.152;5.844;2022-07-09T01:43:51;16.80;91.00
54202;DHT22;40108;53.152;5.844;2022-07-09T01:46:17;16.80;90.90
54202;DHT22;40108;53.152;5.844;2022-07-09T01:48:42;16.80;90.80
54202;DHT22;40108;53.152;5.844;2022-07-09T01:51:09;16.80;90.80
54202;DHT22;40108;53.152;5.844;2022-07-09T01:53:36;16.70;90.90
54202;DHT22;40108;53.152;5.844;2022-07-09T01:56:09;16.70;90.90
54202;DHT22;40108;53.152;5.844;2022-07-09T01:58:35;16.70;91.00
54202;DHT22;40108;53.152;5.844;2022-07-09T02:01:02;16.70;91.10
54202;DHT22;40108;53.152;5.844;2022-07-09T02:03:28;16.60;91.10
54202;DHT22;40108;53.152;5.844;2022-07-09T02:05:54;16.60;91.20
54202;DHT22;40108;53.152;5.844;2022-07-09T02:08:23;16.60;91.30
54202;DHT22;40108;53.152;5.844;2022-07-09T02:10:52;16.60;91.40
54202;DHT22;40108;53.152;5.844;2022-07-09T02:13:20;16.60;91.40
54202;DHT22;40108;53.152;5.844;2022-07-09T02:15:58;16.60;91.40
54202;DHT22;40108;53.152;5.844;2022-07-09T02:18:33;16.60;91.40
54202;DHT22;40108;53.152;5.844;2022-07-09T02:21:04;16.60;91.40
54202;DHT22;40108;53.152;5.844;2022-07-09T02:23:30;16.60;91.40
54202;DHT22;40108;53.152;5.844;2022-07-09T02:25:56;16.60;91.50
54202;DHT22;40108;53.152;5.844;2022-07-09T02:28:22;16.60;91.50
54202;DHT22;40108;53.152;5.844;2022-07-09T02:30:48;16.60;91.50
54202;DHT22;40108;53.152;5.844;2022-07-09T02:33:14;16.60;91.50
54202;DHT22;40108;53.152;5.844;2022-07-09T02:35:40;16.60;91.60
54202;DHT22;40108;53.152;5.844;2022-07-09T02:38:06;16.60;91.60
54202;DHT22;40108;53.152;5.844;2022-07-09T02:40:32;16.60;91.60
54202;DHT22;40108;53.152;5.844;2022-07-09T02:42:58;16.60;91.50
54202;DHT22;40108;53.152;5.844;2022-07-09T02:45:27;16.60;91.50
54202;DHT22;40108;53.152;5.844;2022-07-09T02:47:58;16.60;91.40
54202;DHT22;40108;53.152;5.844;2022-07-09T02:50:24;16.60;91.30
54202;DHT22;40108;53.152;5.844;2022-07-09T02:52:50;16.60;91.30
54202;DHT22;40108;53.152;5.844;2022-07-09T02:55:19;16.60;91.30
54202;DHT22;40108;53.152;5.844;2022-07-09T02:57:47;16.40;91.30
54202;DHT22;40108;53.152;5.844;2022-07-09T03:00:16;16.40;91.30
54202;DHT22;40108;53.152;5.844;2022-07-09T03:02:45;16.30;91.30
54202;DHT22;40108;53.152;5.844;2022-07-09T03:05:11;16.30;91.30
54202;DHT22;40108;53.152;5.844;2022-07-09T03:07:37;16.20;91.30
54202;DHT22;40108;53.152;5.844;2022-07-09T03:10:03;16.20;91.30
54202;DHT22;40108;53.152;5.844;2022-07-09T03:12:29;16.20;91.30
54202;DHT22;40108;53.152;5.844;2022-07-09T03:14:55;16.20;91.30
54202;DHT22;40108;53.152;5.844;2022-07-09T03:17:22;16.20;91.40
54202;DHT22;40108;53.152;5.844;2022-07-09T03:20:10;16.20;91.40
54202;DHT22;40108;53.152;5.844;2022-07-09T03:22:45;16.10;91.50
54202;DHT22;40108;53.152;5.844;2022-07-09T03:25:11;16.10;91.50
54202;DHT22;40108;53.152;5.844;2022-07-09T03:27:37;16.10;91.40
54202;DHT22;40108;53.152;5.844;2022-07-09T03:30:25;16.10;91.50
54202;DHT22;40108;53.152;5.844;2022-07-09T03:33:00;16.10;91.60
54202;DHT22;40108;53.152;5.844;2022-07-09T03:35:37;16.10;91.60
54202;DHT22;40108;53.152;5.844;2022-07-09T03:38:12;16.10;91.60
54202;DHT22;40108;53.152;5.844;2022-07-09T03:40:41;16.00;91.70
54202;DHT22;40108;53.152;5.844;2022-07-09T03:43:34;16.00;91.90
54202;DHT22;40108;53.152;5.844;2022-07-09T03:46:01;16.00;92.00
54202;DHT22;40108;53.152;5.844;2022-07-09T03:48:26;16.00;92.00
54202;DHT22;40108;53.152;5.844;2022-07-09T03:50:52;16.00;92.10
54202;DHT22;40108;53.152;5.844;2022-07-09T03:53:24;16.00;91.90
54202;DHT22;40108;53.152;5.844;2022-07-09T03:55:53;16.10;91.90
54202;DHT22;40108;53.152;5.844;2022-07-09T03:58:19;16.00;91.90
54202;DHT22;40108;53.152;5.844;2022-07-09T04:00:45;16.00;91.90
54202;DHT22;40108;53.152;5.844;2022-07-09T04:03:11;16.00;91.90
54202;DHT22;40108;53.152;5.844;2022-07-09T04:05:45;16.00;91.90
54202;DHT22;40108;53.152;5.844;2022-07-09T04:08:11;16.00;91.90
54202;DHT22;40108;53.152;5.844;2022-07-09T04:10:37;16.00;91.80
54202;DHT22;40108;53.152;5.844;2022-07-09T04:13:02;16.00;91.80
54202;DHT22;40108;53.152;5.844;2022-07-09T04:15:32;16.10;91.80
54202;DHT22;40108;53.152;5.844;2022-07-09T04:18:07;16.00;91.80
54202;DHT22;40108;53.152;5.844;2022-07-09T04:20:33;16.00;91.80
54202;DHT22;40108;53.152;5.844;2022-07-09T04:23:10;16.00;91.80
54202;DHT22;40108;53.152;5.844;2022-07-09T04:25:38;16.00;91.70
54202;DHT22;40108;53.152;5.844;2022-07-09T04:28:14;16.00;91.60
54202;DHT22;40108;53.152;5.844;2022-07-09T04:30:40;16.00;91.70
54202;DHT22;40108;53.152;5.844;2022-07-09T04:33:06;16.00;91.70
54202;DHT22;40108;53.152;5.844;2022-07-09T04:35:41;16.10;91.70
54202;DHT22;40108;53.152;5.844;2022-07-09T04:38:07;16.10;91.70
54202;DHT22;40108;53.152;5.844;2022-07-09T04:40:40;16.10;91.60
54202;DHT22;40108;53.152;5.844;2022-07-09T04:43:12;16.10;91.60
54202;DHT22;40108;53.152;5.844;2022-07-09T04:45:38;16.10;91.60
54202;DHT22;40108;53.152;5.844;2022-07-09T04:48:04;16.10;91.70
54202;DHT22;40108;53.152;5.844;2022-07-09T04:50:36;16.20;91.70
54202;DHT22;40108;53.152;5.844;2022-07-09T04:53:05;16.20;91.70
54202;DHT22;40108;53.152;5.844;2022-07-09T04:55:33;16.20;91.60
54202;DHT22;40108;53.152;5.844;2022-07-09T04:58:03;16.30;91.60
54202;DHT22;40108;53.152;5.844;2022-07-09T05:00:32;16.30;91.60
54202;DHT22;40108;53.152;5.844;2022-07-09T05:03:00;16.40;91.60
54202;DHT22;40108;53.152;5.844;2022-07-09T05:05:32;16.40;91.60
54202;DHT22;40108;53.152;5.844;2022-07-09T05:08:01;16.50;91.70
54202;DHT22;40108;53.152;5.844;2022-07-09T05:10:33;16.50;91.60
54202;DHT22;40108;53.152;5.844;2022-07-09T05:12:58;16.60;91.60
54202;DHT22;40108;53.152;5.844;2022-07-09T05:15:24;16.60;91.60
54202;DHT22;40108;53.152;5.844;2022-07-09T05:17:56;16.70;91.60
54202;DHT22;40108;53.152;5.844;2022-07-09T05:20:22;16.70;91.60
54202;DHT22;40108;53.152;5.844;2022-07-09T05:22:48;16.80;91.60
54202;DHT22;40108;53.152;5.844;2022-07-09T05:25:21;16.80;91.60
54202;DHT22;40108;53.152;5.844;2022-07-09T05:28:01;16.90;91.60
54202;DHT22;40108;53.152;5.844;2022-07-09T05:30:27;17.00;91.50
54202;DHT22;40108;53.152;5.844;2022-07-09T05:32:53;17.00;91.40
54202;DHT22;40108;53.152;5.844;2022-07-09T05:35:27;17.10;91.40
54202;DHT22;40108;53.152;5.844;2022-07-09T05:37:59;17.10;91.40
54202;DHT22;40108;53.152;5.844;2022-07-09T05:40:37;17.20;91.30
54202;DHT22;40108;53.152;5.844;2022-07-09T05:43:06;17.20;91.20
54202;DHT22;40108;53.152;5.844;2022-07-09T05:45:32;17.30;91.20
54202;DHT22;40108;53.152;5.844;2022-07-09T05:48:01;17.30;91.10
54202;DHT22;40108;53.152;5.844;2022-07-09T05:50:36;17.40;91.00
54202;DHT22;40108;53.152;5.844;2022-07-09T05:53:08;17.50;90.90
54202;DHT22;40108;53.152;5.844;2022-07-09T05:55:34;17.50;90.80
54202;DHT22;40108;53.152;5.844;2022-07-09T05:58:08;17.60;90.70
54202;DHT22;40108;53.152;5.844;2022-07-09T06:00:34;17.60;90.70
54202;DHT22;40108;53.152;5.844;2022-07-09T06:03:00;17.60;90.60
54202;DHT22;40108;53.152;5.844;2022-07-09T06:05:26;17.70;90.40
54202;DHT22;40108;53.152;5.844;2022-07-09T06:07:52;17.70;90.10
54202;DHT22;40108;53.152;5.844;2022-07-09T06:10:17;17.70;90.20
54202;DHT22;40108;53.152;5.844;2022-07-09T06:12:58;17.70;90.10
54202;DHT22;40108;53.152;5.844;2022-07-09T06:15:32;17.80;89.90
54202;DHT22;40108;53.152;5.844;2022-07-09T06:17:57;17.80;89.90
54202;DHT22;40108;53.152;5.844;2022-07-09T06:20:23;17.80;89.80
54202;DHT22;40108;53.152;5.844;2022-07-09T06:22:49;17.90;89.60
54202;DHT22;40108;53.152;5.844;2022-07-09T06:25:14;17.90;89.50
54202;DHT22;40108;53.152;5.844;2022-07-09T06:27:40;17.90;89.60
54202;DHT22;40108;53.152;5.844;2022-07-09T06:30:07;18.00;89.50
54202;DHT22;40108;53.152;5.844;2022-07-09T06:32:34;18.00;89.40
54202;DHT22;40108;53.152;5.844;2022-07-09T06:35:00;18.00;89.40
54202;DHT22;40108;53.152;5.844;2022-07-09T06:37:29;18.10;89.30
54202;DHT22;40108;53.152;5.844;2022-07-09T06:39:54;18.10;89.10
54202;DHT22;40108;53.152;5.844;2022-07-09T06:42:22;18.10;88.90
54202;DHT22;40108;53.152;5.844;2022-07-09T06:44:48;18.10;88.80
54202;DHT22;40108;53.152;5.844;2022-07-09T06:47:13;18.10;88.30
54202;DHT22;40108;53.152;5.844;2022-07-09T06:49:43;18.10;88.10
54202;DHT22;40108;53.152;5.844;2022-07-09T06:52:38;18.10;88.20
54202;DHT22;40108;53.152;5.844;2022-07-09T06:55:27;18.10;88.00
54202;DHT22;40108;53.152;5.844;2022-07-09T06:58:24;18.10;87.60
54202;DHT22;40108;53.152;5.844;2022-07-09T07:00:50;18.10;87.50
54202;DHT22;40108;53.152;5.844;2022-07-09T07:03:16;18.10;87.40
54202;DHT22;40108;53.152;5.844;2022-07-09T07:05:42;18.10;87.30
54202;DHT22;40108;53.152;5.844;2022-07-09T07:08:10;18.10;87.40
54202;DHT22;40108;53.152;5.844;2022-07-09T07:10:39;18.10;87.30
54202;DHT22;40108;53.152;5.844;2022-07-09T07:13:05;18.10;86.80
54202;DHT22;40108;53.152;5.844;2022-07-09T07:15:31;18.20;86.90
54202;DHT22;40108;53.152;5.844;2022-07-09T07:18:03;18.10;86.60
54202;DHT22;40108;53.152;5.844;2022-07-09T07:20:32;18.20;86.90
54202;DHT22;40108;53.152;5.844;2022-07-09T07:22:58;18.20;86.30
54202;DHT22;40108;53.152;5.844;2022-07-09T07:25:24;18.20;86.00
54202;DHT22;40108;53.152;5.844;2022-07-09T07:27:53;18.20;86.20
54202;DHT22;40108;53.152;5.844;2022-07-09T07:30:19;18.30;86.20
54202;DHT22;40108;53.152;5.844;2022-07-09T07:32:45;18.30;86.00
54202;DHT22;40108;53.152;5.844;2022-07-09T07:35:11;18.30;86.30
54202;DHT22;40108;53.152;5.844;2022-07-09T07:37:37;18.40;86.50
54202;DHT22;40108;53.152;5.844;2022-07-09T07:40:04;18.60;85.90
54202;DHT22;40108;53.152;5.844;2022-07-09T07:42:30;18.90;84.50
54202;DHT22;40108;53.152;5.844;2022-07-09T07:44:56;19.20;84.80
54202;DHT22;40108;53.152;5.844;2022-07-09T07:47:21;19.40;83.50
54202;DHT22;40108;53.152;5.844;2022-07-09T07:49:47;19.50;83.00
54202;DHT22;40108;53.152;5.844;2022-07-09T07:52:13;19.50;82.80
54202;DHT22;40108;53.152;5.844;2022-07-09T07:54:38;19.50;82.50
54202;DHT22;40108;53.152;5.844;2022-07-09T07:57:04;19.50;82.10
54202;DHT22;40108;53.152;5.844;2022-07-09T07:59:30;19.50;82.10
54202;DHT22;40108;53.152;5.844;2022-07-09T08:01:56;19.60;82.40
54202;DHT22;40108;53.152;5.844;2022-07-09T08:04:22;20.00;82.20
54202;DHT22;40108;53.152;5.844;2022-07-09T08:06:50;20.20;79.60
54202;DHT22;40108;53.152;5.844;2022-07-09T08:09:16;20.30;78.50
54202;DHT22;40108;53.152;5.844;2022-07-09T08:11:42;20.50;78.70
54202;DHT22;40108;53.152;5.844;2022-07-09T08:14:08;20.80;77.70
54202;DHT22;40108;53.152;5.844;2022-07-09T08:16:34;21.00;75.20
54202;DHT22;40108;53.152;5.844;2022-07-09T08:19:00;21.00;76.00
54202;DHT22;40108;53.152;5.844;2022-07-09T08:21:26;20.80;75.90
54202;DHT22;40108;53.152;5.844;2022-07-09T08:23:52;20.70;76.50
54202;DHT22;40108;53.152;5.844;2022-07-09T08:26:21;20.60;75.30
54202;DHT22;40108;53.152;5.844;2022-07-09T08:28:47;20.40;76.50
54202;DHT22;40108;53.152;5.844;2022-07-09T08:31:17;20.30;76.30
54202;DHT22;40108;53.152;5.844;2022-07-09T08:33:42;20.40;76.80
54202;DHT22;40108;53.152;5.844;2022-07-09T08:36:09;20.60;76.30
54202;DHT22;40108;53.152;5.844;2022-07-09T08:38:34;21.00;74.60
54202;DHT22;40108;53.152;5.844;2022-07-09T08:41:01;21.40;74.80
54202;DHT22;40108;53.152;5.844;2022-07-09T08:43:32;21.50;72.80
54202;DHT22;40108;53.152;5.844;2022-07-09T08:45:58;21.30;72.40
54202;DHT22;40108;53.152;5.844;2022-07-09T08:48:24;21.10;73.10
54202;DHT22;40108;53.152;5.844;2022-07-09T08:50:51;21.00;74.10
54202;DHT22;40108;53.152;5.844;2022-07-09T08:53:19;20.80;72.70
54202;DHT22;40108;53.152;5.844;2022-07-09T08:55:45;20.90;73.40
54202;DHT22;40108;53.152;5.844;2022-07-09T08:58:12;20.90;73.40
54202;DHT22;40108;53.152;5.844;2022-07-09T09:00:39;20.90;73.50
54202;DHT22;40108;53.152;5.844;2022-07-09T09:03:05;21.10;72.70
54202;DHT22;40108;53.152;5.844;2022-07-09T09:05:31;21.10;72.00
54202;DHT22;40108;53.152;5.844;2022-07-09T09:07:56;21.10;71.80
54202;DHT22;40108;53.152;5.844;2022-07-09T09:10:24;20.90;71.70
54202;DHT22;40108;53.152;5.844;2022-07-09T09:13:00;20.70;72.30
54202;DHT22;40108;53.152;5.844;2022-07-09T09:15:27;20.60;73.80
54202;DHT22;40108;53.152;5.844;2022-07-09T09:17:54;20.60;72.80
54202;DHT22;40108;53.152;5.844;2022-07-09T09:20:20;20.60;71.40
54202;DHT22;40108;53.152;5.844;2022-07-09T09:22:54;20.60;71.60
54202;DHT22;40108;53.152;5.844;2022-07-09T09:25:25;20.60;72.90
54202;DHT22;40108;53.152;5.844;2022-07-09T09:27:58;20.50;72.00
54202;DHT22;40108;53.152;5.844;2022-07-09T09:30:26;20.60;72.70
54202;DHT22;40108;53.152;5.844;2022-07-09T09:32:59;20.70;72.70
54202;DHT22;40108;53.152;5.844;2022-07-09T09:35:35;20.70;71.60
54202;DHT22;40108;53.152;5.844;2022-07-09T09:38:07;20.60;72.10
54202;DHT22;40108;53.152;5.844;2022-07-09T09:40:32;20.60;72.30
54202;DHT22;40108;53.152;5.844;2022-07-09T09:43:02;20.50;73.00
54202;DHT22;40108;53.152;5.844;2022-07-09T09:45:28;20.40;72.80
54202;DHT22;40108;53.152;5.844;2022-07-09T09:47:54;20.40;72.90
54202;DHT22;40108;53.152;5.844;2022-07-09T09:50:25;20.50;73.50
54202;DHT22;40108;53.152;5.844;2022-07-09T09:52:52;20.60;72.80
54202;DHT22;40108;53.152;5.844;2022-07-09T09:55:19;20.60;71.20
54202;DHT22;40108;53.152;5.844;2022-07-09T09:57:45;20.60;70.20
54202;DHT22;40108;53.152;5.844;2022-07-09T10:00:28;20.60;71.00
54202;DHT22;40108;53.152;5.844;2022-07-09T10:03:01;20.80;72.30
54202;DHT22;40108;53.152;5.844;2022-07-09T10:05:28;21.10;72.20
54202;DHT22;40108;53.152;5.844;2022-07-09T10:07:53;21.30;72.00
54202;DHT22;40108;53.152;5.844;2022-07-09T10:10:22;21.10;71.80
54202;DHT22;40108;53.152;5.844;2022-07-09T10:12:49;20.90;72.20
54202;DHT22;40108;53.152;5.844;2022-07-09T10:15:23;20.50;72.70
54202;DHT22;40108;53.152;5.844;2022-07-09T10:17:50;20.10;73.30
54202;DHT22;40108;53.152;5.844;2022-07-09T10:20:16;20.00;75.10
54202;DHT22;40108;53.152;5.844;2022-07-09T10:22:47;19.80;73.80
54202;DHT22;40108;53.152;5.844;2022-07-09T10:25:27;19.60;75.60
54202;DHT22;40108;53.152;5.844;2022-07-09T10:27:53;19.50;76.30
54202;DHT22;40108;53.152;5.844;2022-07-09T10:30:25;19.10;75.70
54202;DHT22;40108;53.152;5.844;2022-07-09T10:33:07;18.90;76.10
54202;DHT22;40108;53.152;5.844;2022-07-09T10:35:50;18.80;75.80
54202;DHT22;40108;53.152;5.844;2022-07-09T10:38:55;18.60;74.80
54202;DHT22;40108;53.152;5.844;2022-07-09T10:41:30;18.60;74.70
54202;DHT22;40108;53.152;5.844;2022-07-09T10:43:56;18.70;73.60
54202;DHT22;40108;53.152;5.844;2022-07-09T10:46:24;18.80;73.60
54202;DHT22;40108;53.152;5.844;2022-07-09T10:48:50;18.90;72.00
54202;DHT22;40108;53.152;5.844;2022-07-09T10:51:20;19.10;71.20
54202;DHT22;40108;53.152;5.844;2022-07-09T10:53:46;19.10;71.00
54202;DHT22;40108;53.152;5.844;2022-07-09T10:56:20;19.30;69.60
54202;DHT22;40108;53.152;5.844;2022-07-09T10:59:03;19.40;68.50
54202;DHT22;40108;53.152;5.844;2022-07-09T11:01:56;19.40;68.80
54202;DHT22;40108;53.152;5.844;2022-07-09T11:04:29;19.60;67.90
54202;DHT22;40108;53.152;5.844;2022-07-09T11:06:56;19.60;65.60
54202;DHT22;40108;53.152;5.844;2022-07-09T11:09:24;19.60;65.60
54202;DHT22;40108;53.152;5.844;2022-07-09T11:11:51;19.70;63.00
54202;DHT22;40108;53.152;5.844;2022-07-09T11:14:20;19.70;62.50
54202;DHT22;40108;53.152;5.844;2022-07-09T11:16:56;19.80;63.30
54202;DHT22;40108;53.152;5.844;2022-07-09T11:19:22;20.10;62.30
54202;DHT22;40108;53.152;5.844;2022-07-09T11:22:03;20.20;62.50
54202;DHT22;40108;53.152;5.844;2022-07-09T11:24:30;20.30;64.10
54202;DHT22;40108;53.152;5.844;2022-07-09T11:27:06;20.30;63.00
54202;DHT22;40108;53.152;5.844;2022-07-09T11:29:33;20.30;61.10
54202;DHT22;40108;53.152;5.844;2022-07-09T11:31:59;20.40;61.20
54202;DHT22;40108;53.152;5.844;2022-07-09T11:34:27;20.50;61.60
54202;DHT22;40108;53.152;5.844;2022-07-09T11:37:12;20.60;61.90
54202;DHT22;40108;53.152;5.844;2022-07-09T11:39:51;20.80;62.80
54202;DHT22;40108;53.152;5.844;2022-07-09T11:42:42;21.10;60.00
54202;DHT22;40108;53.152;5.844;2022-07-09T11:45:09;21.10;58.20
54202;DHT22;40108;53.152;5.844;2022-07-09T11:47:39;21.10;59.60
54202;DHT22;40108;53.152;5.844;2022-07-09T11:52:34;21.20;58.90
54202;DHT22;40108;53.152;5.844;2022-07-09T11:55:05;21.30;60.10
54202;DHT22;40108;53.152;5.844;2022-07-09T11:57:34;21.40;59.10
54202;DHT22;40108;53.152;5.844;2022-07-09T12:00:01;21.20;57.50
54202;DHT22;40108;53.152;5.844;2022-07-09T12:02:34;21.20;59.10
54202;DHT22;40108;53.152;5.844;2022-07-09T12:05:31;21.00;57.20
54202;DHT22;40108;53.152;5.844;2022-07-09T12:07:59;20.90;58.50
54202;DHT22;40108;53.152;5.844;2022-07-09T12:10:36;20.90;59.60
54202;DHT22;40108;53.152;5.844;2022-07-09T12:13:24;21.00;59.20
54202;DHT22;40108;53.152;5.844;2022-07-09T12:15:50;20.90;57.50
54202;DHT22;40108;53.152;5.844;2022-07-09T12:18:43;20.90;58.20
54202;DHT22;40108;53.152;5.844;2022-07-09T12:21:09;20.90;58.30
54202;DHT22;40108;53.152;5.844;2022-07-09T12:23:34;20.70;57.10
54202;DHT22;40108;53.152;5.844;2022-07-09T12:26:01;20.60;58.80
54202;DHT22;40108;53.152;5.844;2022-07-09T12:28:30;20.60;58.90
54202;DHT22;40108;53.152;5.844;2022-07-09T12:30:55;20.50;59.00
54202;DHT22;40108;53.152;5.844;2022-07-09T12:33:21;20.60;60.30
54202;DHT22;40108;53.152;5.844;2022-07-09T12:35:47;20.60;58.60
54202;DHT22;40108;53.152;5.844;2022-07-09T12:38:35;20.60;57.50
54202;DHT22;40108;53.152;5.844;2022-07-09T12:41:00;20.60;58.50
54202;DHT22;40108;53.152;5.844;2022-07-09T12:43:29;20.60;58.90
54202;DHT22;40108;53.152;5.844;2022-07-09T12:45:58;20.60;60.00
54202;DHT22;40108;53.152;5.844;2022-07-09T12:48:24;20.60;60.60
54202;DHT22;40108;53.152;5.844;2022-07-09T12:50:49;20.50;61.00
54202;DHT22;40108;53.152;5.844;2022-07-09T12:53:15;20.60;61.60
54202;DHT22;40108;53.152;5.844;2022-07-09T12:55:41;20.70;59.80
54202;DHT22;40108;53.152;5.844;2022-07-09T12:58:06;20.50;59.40
54202;DHT22;40108;53.152;5.844;2022-07-09T13:00:32;20.30;59.50
54202;DHT22;40108;53.152;5.844;2022-07-09T13:02:58;20.20;61.70
54202;DHT22;40108;53.152;5.844;2022-07-09T13:05:27;20.10;60.40
54202;DHT22;40108;53.152;5.844;2022-07-09T13:07:53;20.00;61.10
54202;DHT22;40108;53.152;5.844;2022-07-09T13:10:32;20.00;61.50
54202;DHT22;40108;53.152;5.844;2022-07-09T13:12:58;20.10;62.80
54202;DHT22;40108;53.152;5.844;2022-07-09T13:15:43;20.30;62.80
54202;DHT22;40108;53.152;5.844;2022-07-09T13:18:12;20.30;59.90
54202;DHT22;40108;53.152;5.844;2022-07-09T13:20:40;20.40;60.20
54202;DHT22;40108;53.152;5.844;2022-07-09T13:23:06;20.40;60.70
54202;DHT22;40108;53.152;5.844;2022-07-09T13:25:32;20.30;59.90
54202;DHT22;40108;53.152;5.844;2022-07-09T13:27:57;20.10;60.50
54202;DHT22;40108;53.152;5.844;2022-07-09T13:30:23;20.00;61.40
54202;DHT22;40108;53.152;5.844;2022-07-09T13:32:50;20.10;63.00
54202;DHT22;40108;53.152;5.844;2022-07-09T13:35:25;20.10;61.50
54202;DHT22;40108;53.152;5.844;2022-07-09T13:37:52;20.00;62.20
54202;DHT22;40108;53.152;5.844;2022-07-09T13:40:29;19.90;63.30
54202;DHT22;40108;53.152;5.844;2022-07-09T13:42:55;19.90;63.20
54202;DHT22;40108;53.152;5.844;2022-07-09T13:45:29;20.00;64.50
54202;DHT22;40108;53.152;5.844;2022-07-09T13:47:55;20.10;64.30
54202;DHT22;40108;53.152;5.844;2022-07-09T13:50:30;20.00;64.10
54202;DHT22;40108;53.152;5.844;2022-07-09T13:53:09;20.00;64.80
54202;DHT22;40108;53.152;5.844;2022-07-09T13:55:54;19.90;65.20
54202;DHT22;40108;53.152;5.844;2022-07-09T13:58:20;19.80;64.60
54202;DHT22;40108;53.152;5.844;2022-07-09T14:00:45;19.60;64.30
54202;DHT22;40108;53.152;5.844;2022-07-09T14:03:17;19.50;64.50
54202;DHT22;40108;53.152;5.844;2022-07-09T14:05:43;19.30;65.30
54202;DHT22;40108;53.152;5.844;2022-07-09T14:08:09;19.20;64.20
54202;DHT22;40108;53.152;5.844;2022-07-09T14:10:41;19.10;64.40
54202;DHT22;40108;53.152;5.844;2022-07-09T14:13:30;19.10;64.40
54202;DHT22;40108;53.152;5.844;2022-07-09T14:16:01;19.00;63.50
54202;DHT22;40108;53.152;5.844;2022-07-09T14:18:47;18.90;63.60
54202;DHT22;40108;53.152;5.844;2022-07-09T14:26:11;18.90;63.10
54202;DHT22;40108;53.152;5.844;2022-07-09T14:28:37;18.90;61.50
54202;DHT22;40108;53.152;5.844;2022-07-09T14:31:03;18.90;60.30
54202;DHT22;40108;53.152;5.844;2022-07-09T14:33:29;18.80;61.30
54202;DHT22;40108;53.152;5.844;2022-07-09T14:35:55;18.70;61.40
54202;DHT22;40108;53.152;5.844;2022-07-09T14:38:21;18.70;61.70
54202;DHT22;40108;53.152;5.844;2022-07-09T14:40:56;18.70;62.70
54202;DHT22;40108;53.152;5.844;2022-07-09T14:43:42;18.80;62.40
54202;DHT22;40108;53.152;5.844;2022-07-09T14:46:09;18.80;61.20
54202;DHT22;40108;53.152;5.844;2022-07-09T14:48:37;18.70;60.00
54202;DHT22;40108;53.152;5.844;2022-07-09T14:51:11;18.70;61.40
54202;DHT22;40108;53.152;5.844;2022-07-09T14:53:38;18.80;62.60
54202;DHT22;40108;53.152;5.844;2022-07-09T14:56:25;18.90;62.40
54202;DHT22;40108;53.152;5.844;2022-07-09T14:59:10;18.80;61.00
54202;DHT22;40108;53.152;5.844;2022-07-09T15:01:47;18.70;61.70
54202;DHT22;40108;53.152;5.844;2022-07-09T15:07:07;18.80;63.40
54202;DHT22;40108;53.152;5.844;2022-07-09T15:09:33;18.70;63.30
54202;DHT22;40108;53.152;5.844;2022-07-09T15:11:59;18.60;63.20
54202;DHT22;40108;53.152;5.844;2022-07-09T15:14:24;18.60;64.20
54202;DHT22;40108;53.152;5.844;2022-07-09T15:16:50;18.60;64.40
54202;DHT22;40108;53.152;5.844;2022-07-09T15:19:24;18.60;64.10
54202;DHT22;40108;53.152;5.844;2022-07-09T15:21:53;18.50;63.90
54202;DHT22;40108;53.152;5.844;2022-07-09T15:24:32;18.60;65.20
54202;DHT22;40108;53.152;5.844;2022-07-09T15:26:57;18.60;65.20
54202;DHT22;40108;53.152;5.844;2022-07-09T15:29:23;18.60;64.60
54202;DHT22;40108;53.152;5.844;2022-07-09T15:31:52;18.60;64.80
54202;DHT22;40108;53.152;5.844;2022-07-09T15:34:18;18.50;64.90
54202;DHT22;40108;53.152;5.844;2022-07-09T15:36:52;18.40;64.30
54202;DHT22;40108;53.152;5.844;2022-07-09T15:39:18;18.40;66.00
54202;DHT22;40108;53.152;5.844;2022-07-09T15:41:44;18.30;66.30
54202;DHT22;40108;53.152;5.844;2022-07-09T15:44:10;18.30;67.10
54202;DHT22;40108;53.152;5.844;2022-07-09T15:46:44;18.30;68.30
54202;DHT22;40108;53.152;5.844;2022-07-09T15:49:19;18.30;67.10
54202;DHT22;40108;53.152;5.844;2022-07-09T15:51:54;18.20;64.70
54202;DHT22;40108;53.152;5.844;2022-07-09T15:54:25;18.10;63.80